Grand Lake, Minnesota
Current Conditions -  °F | °C
As of 1:55 PM on Sunday 21 Dec 2014 (Local Time) from KDLH Reporting Station
Haze Haze  
Wind Chill: 21°   Ceiling: 300
Heat Index: 31°   Visibility: 2mi
Dew Point: 29°   Wind: 13mph
Humidity: 92%   Direction: 140°SE
Pressure: 29.75"   Gusts: NA
Location:  46.8859°N, 92.4258°W
Report Text: KDLH 211955Z 14011KT 2SM BR OVC003 M01/M02 A2975 RMK AO2 SNE09 SLP096 P0000 T10061017
Loading
Personal Weather Stations






























Interactive Weather Map New forecast layout! Learn more

10-Day Weather Forecast

Advertisements
Track Severe Weather on mobile